Time;durP1;ratioP1;P1;durP2;ratioP2;P2;SDS_P1;SDS_P2;PMS_P1;PMS_P2;Temp;Humidity;BMP_temperature;BMP_pressure;BME280_temperature;BME280_humidity;BME280_pressure;Samples;Min_cycle;Max_cycle;Signal;HPM_P1;HPM_P2
2024/01/10 00:01:35;;;;;;;2.30;2.20;;;-1.20;1.00;;;;;;5045628;28;20043;-84
2024/01/10 00:04:00;;;;;;;2.30;2.20;;;-1.20;1.00;;;;;;5046250;28;20044;-85
2024/01/10 00:06:26;;;;;;;2.30;2.20;;;-1.20;99.90;;;;;;5064643;28;20052;-84
2024/01/10 00:08:52;;;;;;;2.20;2.10;;;-1.10;99.90;;;;;;5046512;28;20048;-83
2024/01/10 00:11:17;;;;;;;2.30;2.20;;;-1.30;99.90;;;;;;5067917;28;20539;-84
2024/01/10 00:13:43;;;;;;;2.58;2.47;;;-1.30;99.90;;;;;;5044255;28;20045;-83
2024/01/10 00:16:13;;;;;;;2.50;2.40;;;-1.20;99.90;;;;;;5047060;28;20182;-83
2024/01/10 00:18:40;;;;;;;2.65;2.53;;;-1.30;99.90;;;;;;5045669;28;20557;-84
2024/01/10 00:21:06;;;;;;;2.40;2.30;;;-1.20;99.90;;;;;;5050319;28;20036;-83
2024/01/10 00:23:31;;;;;;;2.55;2.45;;;-1.20;99.90;;;;;;5048595;28;20123;-83
2024/01/10 00:25:57;;;;;;;2.42;2.33;;;-1.20;99.90;;;;;;5043591;28;20052;-83
2024/01/10 00:28:23;;;;;;;2.33;2.22;;;-1.30;99.90;;;;;;5060399;28;20079;-82
2024/01/10 00:30:49;;;;;;;2.38;2.28;;;-1.30;99.90;;;;;;5044336;28;20052;-83
2024/01/10 00:33:15;;;;;;;2.45;2.35;;;-1.30;99.90;;;;;;5048166;28;20052;-83
2024/01/10 00:35:41;;;;;;;2.38;2.28;;;-1.30;99.90;;;;;;5045975;28;20081;-83
2024/01/10 00:38:06;;;;;;;2.28;2.17;;;-1.40;99.90;;;;;;5064940;28;20112;-83
2024/01/10 00:40:32;;;;;;;2.33;2.22;;;-1.40;99.90;;;;;;5045723;28;20094;-82
2024/01/10 00:42:58;;;;;;;2.38;2.28;;;-1.50;1.00;;;;;;5044314;28;20052;-82
2024/01/10 00:45:24;;;;;;;2.40;2.30;;;-1.50;1.00;;;;;;5045979;28;20505;-82
2024/01/10 00:47:50;;;;;;;2.47;2.38;;;-1.50;1.00;;;;;;5045665;28;20462;-82
2024/01/10 00:50:16;;;;;;;2.55;2.45;;;-1.50;1.00;;;;;;5048616;28;20056;-82
2024/01/10 00:52:45;;;;;;;2.58;2.47;;;-1.50;1.00;;;;;;5043956;28;20190;-82
2024/01/10 00:55:12;;;;;;;2.53;2.42;;;-1.60;1.00;;;;;;5047182;28;20375;-82
2024/01/10 00:57:38;;;;;;;2.42;2.33;;;-1.70;1.00;;;;;;5049571;28;20067;-82
2024/01/10 01:00:13;;;;;;;2.38;2.28;;;-1.60;1.00;;;;;;5059763;28;20383;-82
2024/01/10 01:02:41;;;;;;;2.50;2.40;;;-1.50;1.00;;;;;;5043123;28;20040;-81
2024/01/10 01:05:07;;;;;;;2.38;2.28;;;-1.60;1.00;;;;;;5046547;28;20799;-81
2024/01/10 01:07:34;;;;;;;2.42;2.33;;;-1.50;1.00;;;;;;5045025;28;21166;-81
2024/01/10 01:10:00;;;;;;;2.45;2.35;;;-1.60;1.00;;;;;;5043843;28;20391;-81
2024/01/10 01:12:25;;;;;;;2.55;2.45;;;-1.60;1.00;;;;;;5048913;28;20048;-81
2024/01/10 01:14:51;;;;;;;2.40;2.30;;;-1.60;1.00;;;;;;5028030;28;20056;-81
2024/01/10 01:17:17;;;;;;;2.35;2.25;;;-1.70;1.00;;;;;;5043272;28;20448;-80
2024/01/10 01:19:43;;;;;;;2.30;2.20;;;-1.70;1.00;;;;;;5026182;28;20140;-81
2024/01/10 01:22:08;;;;;;;2.30;2.20;;;-1.80;1.00;;;;;;5045143;28;20041;-81
2024/01/10 01:24:34;;;;;;;2.30;2.20;;;-1.70;1.00;;;;;;5042418;28;20517;-80
2024/01/10 01:27:00;;;;;;;2.40;2.30;;;-1.60;99.90;;;;;;5044149;28;20104;-80
2024/01/10 01:29:25;;;;;;;2.33;2.22;;;-1.60;99.90;;;;;;5046855;28;20059;-80
2024/01/10 01:31:52;;;;;;;2.35;2.25;;;-1.70;99.90;;;;;;5044679;28;20646;-80
2024/01/10 01:34:18;;;;;;;2.15;2.05;;;-1.70;99.90;;;;;;5061764;28;20110;-80
2024/01/10 01:36:43;;;;;;;2.20;2.10;;;-1.70;99.90;;;;;;5040508;28;20057;-80
2024/01/10 01:39:09;;;;;;;2.20;2.10;;;-1.70;99.90;;;;;;5047975;28;20071;-80
2024/01/10 01:41:35;;;;;;;2.22;2.13;;;-1.70;1.00;;;;;;5062269;28;20040;-79
2024/01/10 01:44:00;;;;;;;2.08;1.98;;;-1.70;99.90;;;;;;5046865;28;20040;-80
2024/01/10 01:46:27;;;;;;;2.10;2.00;;;-1.80;99.90;;;;;;5043422;28;20135;-79
2024/01/10 01:48:53;;;;;;;1.98;1.88;;;-1.80;99.90;;;;;;5046465;28;20059;-79
2024/01/10 01:51:21;;;;;;;1.85;1.75;;;-1.90;99.90;;;;;;5030998;28;20549;-79
2024/01/10 01:53:48;;;;;;;2.05;1.95;;;-1.80;1.00;;;;;;5044558;28;20048;-79
2024/01/10 01:56:15;;;;;;;2.05;1.95;;;-1.90;1.00;;;;;;5063479;28;20048;-79
2024/01/10 01:58:44;;;;;;;2.05;1.95;;;-1.90;1.00;;;;;;5041392;28;20449;-79
2024/01/10 02:01:12;;;;;;;1.90;1.80;;;-1.90;1.00;;;;;;5059620;28;20045;-79
2024/01/10 02:03:38;;;;;;;1.85;1.75;;;-1.90;1.00;;;;;;5043474;28;20139;-79
2024/01/10 02:06:04;;;;;;;1.92;1.83;;;-1.90;1.00;;;;;;5046569;28;20047;-79
2024/01/10 02:08:34;;;;;;;1.95;1.85;;;-2.00;1.00;;;;;;5060830;28;20126;-79
2024/01/10 02:11:01;;;;;;;1.88;1.77;;;-2.10;1.00;;;;;;5043134;28;20055;-79
2024/01/10 02:13:27;;;;;;;1.95;1.85;;;-2.10;1.00;;;;;;5046205;28;20498;-79
2024/01/10 02:15:54;;;;;;;1.92;1.83;;;-2.10;1.00;;;;;;5043637;28;20055;-79
2024/01/10 02:18:19;;;;;;;1.92;1.83;;;-2.10;27.10;;;;;;5059767;28;20033;-79
2024/01/10 02:20:46;;;;;;;1.95;1.85;;;-2.10;12.20;;;;;;5041485;28;20047;-79
2024/01/10 02:23:11;;;;;;;1.95;1.85;;;-2.10;8.80;;;;;;5046286;28;20159;-78
2024/01/10 02:25:38;;;;;;;2.00;1.90;;;-2.10;32.90;;;;;;5060763;28;20164;-78
2024/01/10 02:28:04;;;;;;;2.00;1.90;;;-2.10;23.40;;;;;;5043428;28;20052;-78
2024/01/10 02:30:30;;;;;;;1.92;1.83;;;-2.10;27.00;;;;;;5061641;28;20118;-78
2024/01/10 02:32:56;;;;;;;1.92;1.83;;;-2.20;1.00;;;;;;5045457;28;20044;-78
2024/01/10 02:35:21;;;;;;;1.85;1.75;;;-2.20;1.00;;;;;;5043995;28;20139;-78
2024/01/10 02:37:51;;;;;;;1.83;1.73;;;-2.20;1.00;;;;;;5050122;28;20040;-78
2024/01/10 02:40:16;;;;;;;1.90;1.80;;;-2.10;1.00;;;;;;5063993;28;20582;-78
2024/01/10 02:42:42;;;;;;;1.88;1.77;;;-2.10;1.00;;;;;;5063156;28;20048;-78
2024/01/10 02:45:08;;;;;;;1.75;1.65;;;-2.10;1.00;;;;;;5066533;28;20069;-78
2024/01/10 02:47:34;;;;;;;1.77;1.67;;;-2.10;1.00;;;;;;5030149;28;20393;-78
2024/01/10 02:50:00;;;;;;;1.70;1.60;;;-2.10;1.00;;;;;;5064892;28;20044;-77
2024/01/10 02:52:27;;;;;;;1.67;1.58;;;-2.10;1.00;;;;;;5063515;28;20058;-78
2024/01/10 02:54:53;;;;;;;1.73;1.63;;;-2.10;1.00;;;;;;5065942;28;20048;-78
2024/01/10 02:57:19;;;;;;;1.73;1.63;;;-2.10;1.00;;;;;;5044684;28;20040;-78
2024/01/10 02:59:44;;;;;;;1.58;1.48;;;-2.10;1.00;;;;;;5045979;28;20051;-78
2024/01/10 03:02:10;;;;;;;1.65;1.55;;;-2.10;1.00;;;;;;5045932;28;20040;-78
2024/01/10 03:04:35;;;;;;;1.60;1.50;;;-2.10;1.00;;;;;;5046936;28;20135;-78
2024/01/10 03:07:01;;;;;;;1.48;1.40;;;-2.10;1.00;;;;;;5067216;28;20481;-77
2024/01/10 03:09:27;;;;;;;1.40;1.35;;;-2.00;1.00;;;;;;5045477;28;20473;-78
2024/01/10 03:11:53;;;;;;;1.50;1.40;;;-2.10;1.00;;;;;;5044261;28;20068;-78
2024/01/10 03:14:18;;;;;;;1.50;1.40;;;-2.10;1.00;;;;;;5044875;28;20053;-78
2024/01/10 03:16:44;;;;;;;1.45;1.40;;;-2.10;1.00;;;;;;5046384;28;20046;-78
2024/01/10 03:19:10;;;;;;;1.35;1.33;;;-2.10;1.00;;;;;;5042816;28;20121;-77
2024/01/10 03:21:35;;;;;;;1.33;1.33;;;-2.10;1.00;;;;;;5044575;28;20460;-78
2024/01/10 03:24:01;;;;;;;1.30;1.30;;;-2.10;1.00;;;;;;5040309;28;20071;-77
2024/01/10 03:26:30;;;;;;;1.30;1.30;;;-2.10;1.00;;;;;;5038469;28;20065;-78
2024/01/10 03:28:56;;;;;;;1.48;1.40;;;-2.00;1.00;;;;;;5029223;28;20768;-78
2024/01/10 03:31:22;;;;;;;1.30;1.30;;;-2.00;1.00;;;;;;5048342;28;20059;-77
2024/01/10 03:33:48;;;;;;;1.50;1.40;;;-2.10;1.00;;;;;;5044536;28;20037;-77
2024/01/10 03:36:16;;;;;;;1.25;1.25;;;-2.10;99.90;;;;;;5038641;28;20127;-78
2024/01/10 03:38:43;;;;;;;1.30;1.30;;;-2.10;1.00;;;;;;5047339;28;20052;-78
2024/01/10 03:41:16;;;;;;;1.23;1.23;;;-2.00;99.90;;;;;;5027062;28;20083;-77
2024/01/10 03:43:42;;;;;;;1.20;1.20;;;-2.00;99.90;;;;;;5047099;28;20420;-77
2024/01/10 03:46:09;;;;;;;1.20;1.20;;;-2.00;99.90;;;;;;5060863;28;20107;-78
2024/01/10 03:48:34;;;;;;;1.30;1.30;;;-2.00;99.90;;;;;;5051582;28;20060;-78
2024/01/10 03:51:00;;;;;;;1.30;1.30;;;-2.00;99.90;;;;;;5051489;28;20053;-77
2024/01/10 03:53:26;;;;;;;1.23;1.23;;;-2.00;99.90;;;;;;5049163;28;20144;-77
2024/01/10 03:55:52;;;;;;;1.30;1.30;;;-2.00;99.90;;;;;;5045128;28;20132;-78
2024/01/10 03:58:17;;;;;;;1.30;1.30;;;-2.00;99.90;;;;;;5048500;28;20071;-77
2024/01/10 04:00:43;;;;;;;1.40;1.40;;;-2.00;99.90;;;;;;5064570;28;20117;-78
2024/01/10 04:03:09;;;;;;;1.27;1.27;;;-2.00;99.90;;;;;;5062899;28;20052;-78
2024/01/10 04:05:34;;;;;;;1.23;1.23;;;-1.90;99.90;;;;;;5048269;28;20083;-77
2024/01/10 04:08:00;;;;;;;1.30;1.30;;;-2.00;99.90;;;;;;5064194;28;20064;-77
2024/01/10 04:10:26;;;;;;;1.27;1.27;;;-2.00;99.90;;;;;;5052240;28;20044;-77
2024/01/10 04:12:51;;;;;;;1.25;1.25;;;-2.00;99.90;;;;;;5046283;28;20102;-78
2024/01/10 04:15:20;;;;;;;1.38;1.35;;;-1.80;99.90;;;;;;5068826;28;20571;-77
2024/01/10 04:17:46;;;;;;;1.30;1.30;;;-2.00;99.90;;;;;;5045837;28;20048;-77
2024/01/10 04:20:11;;;;;;;1.23;1.23;;;-1.90;99.90;;;;;;5062149;28;20048;-77
2024/01/10 04:22:37;;;;;;;1.20;1.20;;;-2.00;99.90;;;;;;5046817;28;20131;-77
2024/01/10 04:25:07;;;;;;;1.33;1.33;;;-1.90;99.90;;;;;;5061056;28;20045;-77
2024/01/10 04:27:32;;;;;;;1.30;1.30;;;-1.90;99.90;;;;;;5046434;28;20595;-77
2024/01/10 04:29:58;;;;;;;1.23;1.23;;;-1.80;99.90;;;;;;5044122;28;20045;-77
2024/01/10 04:32:24;;;;;;;1.20;1.20;;;-1.80;99.90;;;;;;5033785;28;20055;-77
2024/01/10 04:34:49;;;;;;;1.23;1.23;;;-1.80;99.90;;;;;;5051020;28;20055;-77
2024/01/10 04:37:15;;;;;;;1.27;1.27;;;-1.90;99.90;;;;;;5045273;28;20045;-77
2024/01/10 04:39:42;;;;;;;1.25;1.25;;;-1.90;99.90;;;;;;5025134;28;20080;-78
2024/01/10 04:42:10;;;;;;;1.25;1.25;;;-1.80;99.90;;;;;;5046075;28;20056;-77
2024/01/10 04:44:36;;;;;;;1.30;1.30;;;-1.80;99.90;;;;;;5051863;28;20122;-77
2024/01/10 04:47:02;;;;;;;1.30;1.30;;;-1.90;99.90;;;;;;5048508;28;20043;-77
2024/01/10 04:49:27;;;;;;;1.25;1.25;;;-1.90;99.90;;;;;;5049519;28;20056;-77
2024/01/10 04:51:53;;;;;;;1.25;1.25;;;-1.90;99.90;;;;;;5047814;28;20449;-78
2024/01/10 04:54:19;;;;;;;1.23;1.23;;;-2.00;99.90;;;;;;5045915;28;20052;-77
2024/01/10 04:56:45;;;;;;;1.23;1.23;;;-2.00;99.90;;;;;;5056590;28;20049;-78
2024/01/10 04:59:10;;;;;;;1.25;1.25;;;-2.00;99.90;;;;;;5059808;28;20131;-77
2024/01/10 05:01:37;;;;;;;1.20;1.20;;;-1.90;99.90;;;;;;5048789;28;20132;-78
2024/01/10 05:04:03;;;;;;;1.20;1.20;;;-2.00;99.90;;;;;;5035258;28;20063;-78
2024/01/10 05:06:29;;;;;;;1.25;1.25;;;-1.90;99.90;;;;;;5057300;28;20037;-77
2024/01/10 05:08:57;;;;;;;1.30;1.30;;;-1.90;99.90;;;;;;5064119;28;20075;-78
2024/01/10 05:11:25;;;;;;;1.27;1.27;;;-2.00;99.90;;;;;;5059465;28;20155;-77
2024/01/10 05:13:51;;;;;;;1.30;1.30;;;-2.00;99.90;;;;;;5060190;28;20608;-78
2024/01/10 05:16:17;;;;;;;1.30;1.30;;;-2.00;99.90;;;;;;5042912;28;20055;-78
2024/01/10 05:18:43;;;;;;;1.20;1.20;;;-1.90;99.90;;;;;;5066020;28;20513;-78
2024/01/10 05:21:09;;;;;;;1.30;1.30;;;-2.00;99.90;;;;;;5060980;28;20056;-78
2024/01/10 05:23:35;;;;;;;1.13;1.13;;;-2.00;99.90;;;;;;5044315;28;20135;-78
2024/01/10 05:26:01;;;;;;;1.20;1.20;;;-2.00;99.90;;;;;;5041684;28;20793;-78
2024/01/10 05:28:26;;;;;;;1.20;1.20;;;-2.00;99.90;;;;;;5047329;28;20057;-78
2024/01/10 05:30:53;;;;;;;1.20;1.20;;;-2.00;99.90;;;;;;5045401;28;20198;-78
2024/01/10 05:33:20;;;;;;;1.20;1.20;;;-2.00;99.90;;;;;;5047174;28;20133;-78
2024/01/10 05:35:45;;;;;;;1.17;1.17;;;-2.00;99.90;;;;;;5035812;28;20049;-78
2024/01/10 05:38:11;;;;;;;1.23;1.23;;;-2.00;99.90;;;;;;5035554;28;20044;-78
2024/01/10 05:40:37;;;;;;;1.15;1.15;;;-2.00;99.90;;;;;;5031815;28;20064;-78
2024/01/10 05:43:03;;;;;;;1.25;1.25;;;-2.00;99.90;;;;;;5062792;28;20097;-78
2024/01/10 05:45:28;;;;;;;1.20;1.20;;;-2.10;99.90;;;;;;5046680;28;20048;-78
2024/01/10 05:47:54;;;;;;;1.10;1.10;;;-2.10;99.90;;;;;;5045317;28;20087;-78
2024/01/10 05:50:20;;;;;;;1.20;1.20;;;-2.10;1.00;;;;;;5042745;28;20135;-78
2024/01/10 05:52:47;;;;;;;1.20;1.20;;;-2.00;99.90;;;;;;5032461;28;20148;-78
2024/01/10 05:55:13;;;;;;;1.20;1.20;;;-2.00;99.90;;;;;;5043832;28;20048;-78
2024/01/10 05:57:39;;;;;;;1.20;1.20;;;-2.00;99.90;;;;;;5045485;28;20094;-78
2024/01/10 06:00:09;;;;;;;1.30;1.30;;;-2.00;99.90;;;;;;5050020;28;20150;-79
2024/01/10 06:02:39;;;;;;;1.33;1.33;;;-2.00;99.90;;;;;;5061547;28;20060;-78
2024/01/10 06:05:13;;;;;;;1.20;1.20;;;-1.90;99.90;;;;;;5057524;28;20079;-78
2024/01/10 06:07:42;;;;;;;1.30;1.30;;;-2.00;99.90;;;;;;5062054;28;20789;-78
2024/01/10 06:10:09;;;;;;;1.30;1.30;;;-1.90;99.90;;;;;;5044076;28;20148;-78
2024/01/10 06:12:35;;;;;;;1.30;1.30;;;-1.90;99.90;;;;;;5045610;28;20048;-78
2024/01/10 06:15:01;;;;;;;1.20;1.20;;;-2.00;99.90;;;;;;5041040;28;20050;-78
2024/01/10 06:17:26;;;;;;;1.20;1.20;;;-2.10;99.90;;;;;;5045752;28;20114;-78
2024/01/10 06:19:52;;;;;;;1.20;1.20;;;-2.10;99.90;;;;;;5045930;28;20053;-78
2024/01/10 06:22:18;;;;;;;1.20;1.20;;;-2.00;99.90;;;;;;5045469;28;20561;-78
2024/01/10 06:24:44;;;;;;;1.20;1.20;;;-2.00;99.90;;;;;;5061748;28;20168;-78
2024/01/10 06:27:10;;;;;;;1.10;1.10;;;-2.10;99.90;;;;;;5064956;28;20052;-78
2024/01/10 06:29:36;;;;;;;1.20;1.20;;;-2.00;99.90;;;;;;5044658;28;20047;-78
2024/01/10 06:32:06;;;;;;;1.20;1.20;;;-2.00;99.90;;;;;;5043857;28;20037;-78
2024/01/10 06:34:32;;;;;;;1.20;1.20;;;-2.10;99.90;;;;;;5042592;28;20496;-78
2024/01/10 06:36:58;;;;;;;1.20;1.20;;;-2.10;99.90;;;;;;5042322;28;20111;-78
2024/01/10 06:39:24;;;;;;;1.20;1.20;;;-2.10;99.90;;;;;;5040862;28;20163;-78
2024/01/10 06:41:50;;;;;;;1.17;1.17;;;-2.10;99.90;;;;;;5043149;28;20119;-78
2024/01/10 06:44:17;;;;;;;1.20;1.20;;;-2.10;99.90;;;;;;5061198;28;20041;-78
2024/01/10 06:46:43;;;;;;;1.10;1.10;;;-2.10;99.90;;;;;;5041649;28;20056;-78
2024/01/10 06:49:09;;;;;;;1.20;1.20;;;-2.20;99.90;;;;;;5038948;28;20049;-78
2024/01/10 06:51:35;;;;;;;1.30;1.30;;;-2.30;99.90;;;;;;5045743;28;20061;-78
2024/01/10 06:54:03;;;;;;;1.30;1.30;;;-2.30;99.90;;;;;;5044913;28;20083;-78
2024/01/10 06:56:32;;;;;;;1.20;1.20;;;-2.20;99.90;;;;;;5045180;28;20049;-78
2024/01/10 06:58:59;;;;;;;1.20;1.20;;;-2.20;99.90;;;;;;5046347;28;20044;-78
2024/01/10 07:01:25;;;;;;;1.27;1.27;;;-2.30;99.90;;;;;;5044222;28;20047;-78
2024/01/10 07:03:52;;;;;;;1.20;1.20;;;-2.40;99.90;;;;;;5053115;28;20044;-78
2024/01/10 07:06:18;;;;;;;1.20;1.20;;;-2.20;99.90;;;;;;5042563;28;20528;-78
2024/01/10 07:08:47;;;;;;;1.30;1.30;;;-2.30;99.90;;;;;;5066196;28;20150;-78
2024/01/10 07:11:12;;;;;;;1.30;1.30;;;-2.40;99.90;;;;;;5050369;28;20056;-79
2024/01/10 07:13:38;;;;;;;1.20;1.20;;;-2.30;99.90;;;;;;5048224;28;20063;-78
2024/01/10 07:16:04;;;;;;;1.20;1.20;;;-2.30;99.90;;;;;;5051227;28;20048;-78
2024/01/10 07:18:32;;;;;;;1.20;1.20;;;-2.30;99.90;;;;;;5046000;28;20052;-78
2024/01/10 07:20:58;;;;;;;1.25;1.25;;;-2.30;99.90;;;;;;5048054;28;20049;-78
2024/01/10 07:23:24;;;;;;;1.20;1.20;;;-2.20;99.90;;;;;;5048327;28;20049;-78
2024/01/10 07:25:50;;;;;;;1.20;1.20;;;-2.30;99.90;;;;;;5047703;28;20082;-78
2024/01/10 07:28:19;;;;;;;1.27;1.27;;;-2.40;99.90;;;;;;5046940;28;20593;-78
2024/01/10 07:30:46;;;;;;;1.30;1.30;;;-2.30;99.90;;;;;;5047875;28;20052;-78
2024/01/10 07:33:12;;;;;;;1.20;1.20;;;-2.30;99.90;;;;;;5066147;28;20060;-77
2024/01/10 07:35:38;;;;;;;1.20;1.20;;;-2.30;99.90;;;;;;5068110;28;20406;-78
2024/01/10 07:38:07;;;;;;;1.20;1.20;;;-2.30;99.90;;;;;;5063009;28;20078;-78
2024/01/10 07:40:33;;;;;;;1.23;1.23;;;-2.30;99.90;;;;;;5046397;28;20383;-78
2024/01/10 07:42:59;;;;;;;1.20;1.20;;;-2.20;99.90;;;;;;5048456;28;20131;-78
2024/01/10 07:45:25;;;;;;;1.30;1.30;;;-2.20;99.90;;;;;;5047980;28;20048;-77
2024/01/10 07:47:50;;;;;;;1.20;1.20;;;-2.20;99.90;;;;;;5032724;28;20045;-78
2024/01/10 07:50:16;;;;;;;1.33;1.33;;;-2.20;99.90;;;;;;5055548;28;20044;-76
2024/01/10 07:52:43;;;;;;;1.30;1.30;;;-2.00;99.90;;;;;;5036442;28;20054;-76
2024/01/10 07:55:09;;;;;;;1.30;1.30;;;-2.00;99.90;;;;;;5031756;28;20080;-78
2024/01/10 07:57:36;;;;;;;1.10;1.10;;;-2.00;99.90;;;;;;5047462;28;20080;-76
2024/01/10 08:00:12;;;;;;;1.20;1.20;;;-2.00;99.90;;;;;;5048384;28;20539;-78
2024/01/10 08:02:38;;;;;;;1.30;1.30;;;-2.00;99.90;;;;;;5047873;28;20068;-76
2024/01/10 08:05:05;;;;;;;1.25;1.25;;;-1.80;99.90;;;;;;5068852;28;20047;-78
2024/01/10 08:07:36;;;;;;;1.20;1.20;;;-1.90;99.90;;;;;;5049267;28;20084;-78
2024/01/10 08:10:10;;;;;;;1.10;1.10;;;-1.80;99.90;;;;;;5047217;28;20040;-78
2024/01/10 08:12:38;;;;;;;1.20;1.20;;;-1.80;99.90;;;;;;5053841;28;20055;-77
2024/01/10 08:15:06;;;;;;;1.30;1.30;;;-1.80;99.90;;;;;;5048089;28;20745;-78
2024/01/10 08:17:32;;;;;;;1.30;1.30;;;-1.60;99.90;;;;;;5045950;28;20083;-77
2024/01/10 08:19:58;;;;;;;1.30;1.30;;;-1.60;99.90;;;;;;5050501;28;20060;-77
2024/01/10 08:22:24;;;;;;;1.20;1.20;;;-1.60;99.90;;;;;;5047594;28;20044;-77
2024/01/10 08:24:50;;;;;;;1.20;1.20;;;-1.40;99.90;;;;;;5065831;28;20375;-77
2024/01/10 08:27:17;;;;;;;1.17;1.17;;;-1.40;99.90;;;;;;5046878;28;20383;-78
2024/01/10 08:29:42;;;;;;;1.20;1.20;;;-1.30;99.90;;;;;;5047815;28;20448;-77
2024/01/10 08:32:08;;;;;;;1.27;1.27;;;-1.30;99.90;;;;;;5050248;28;20048;-78
2024/01/10 08:34:34;;;;;;;1.20;1.20;;;-1.20;99.90;;;;;;5051367;28;20068;-77
2024/01/10 08:36:59;;;;;;;1.50;1.40;;;-1.10;99.90;;;;;;5067317;28;20040;-77
2024/01/10 08:39:28;;;;;;;1.30;1.30;;;-1.10;99.90;;;;;;5047254;28;20059;-77
2024/01/10 08:41:53;;;;;;;1.27;1.27;;;-1.10;99.90;;;;;;5064710;28;20508;-76
2024/01/10 08:44:19;;;;;;;1.30;1.30;;;-0.90;99.90;;;;;;5048374;28;20044;-76
2024/01/10 08:46:45;;;;;;;1.45;1.40;;;-1.00;99.90;;;;;;5065638;28;20096;-77
2024/01/10 08:49:11;;;;;;;1.50;1.40;;;-0.80;99.90;;;;;;5047193;28;20048;-77
2024/01/10 08:51:37;;;;;;;1.60;1.50;;;-0.90;99.90;;;;;;5063109;28;21018;-77
2024/01/10 08:54:03;;;;;;;1.42;1.40;;;-0.80;99.90;;;;;;5044871;28;20135;-77
2024/01/10 08:56:29;;;;;;;1.60;1.50;;;-0.70;99.90;;;;;;5045695;28;20489;-77
2024/01/10 08:58:54;;;;;;;1.50;1.40;;;-0.60;99.90;;;;;;5063675;28;20056;-77
2024/01/10 09:01:20;;;;;;;1.55;1.45;;;-0.60;84.60;;;;;;5041842;28;20048;-77
2024/01/10 09:03:46;;;;;;;1.50;1.40;;;-0.60;88.80;;;;;;5045139;28;20092;-74
2024/01/10 09:06:12;;;;;;;1.60;1.50;;;-0.50;87.50;;;;;;5047287;28;20037;-77
2024/01/10 09:08:39;;;;;;;2.08;1.98;;;-0.30;90.70;;;;;;5050342;28;20052;-77
2024/01/10 09:11:05;;;;;;;1.58;1.48;;;-0.40;70.80;;;;;;5050225;28;20079;-76
2024/01/10 09:13:31;;;;;;;1.60;1.50;;;-0.30;66.50;;;;;;5052851;28;21080;-76
2024/01/10 09:15:57;;;;;;;1.70;1.60;;;-0.20;73.10;;;;;;5050674;28;20518;-78
2024/01/10 09:18:22;;;;;;;1.60;1.50;;;-0.10;89.20;;;;;;5048216;28;20048;-77
2024/01/10 09:20:48;;;;;;;1.60;1.50;;;-0.10;50.60;;;;;;5048095;28;20044;-76
2024/01/10 09:23:14;;;;;;;1.58;1.48;;;0.00;50.50;;;;;;5049984;28;20055;-77
2024/01/10 09:25:40;;;;;;;1.63;1.52;;;0.10;64.40;;;;;;5067773;28;20177;-74
2024/01/10 09:28:06;;;;;;;1.70;1.60;;;0.10;43.20;;;;;;5049771;28;20552;-77
2024/01/10 09:30:31;;;;;;;1.75;1.65;;;0.10;33.00;;;;;;5068089;28;20044;-78
2024/01/10 09:32:57;;;;;;;1.70;1.60;;;0.30;41.20;;;;;;5067869;28;20044;-77
2024/01/10 09:35:23;;;;;;;1.70;1.60;;;0.30;34.50;;;;;;5067640;28;20044;-77
2024/01/10 09:37:49;;;;;;;1.90;1.80;;;0.30;34.20;;;;;;5049129;28;20053;-74
2024/01/10 09:40:16;;;;;;;1.70;1.60;;;0.30;25.80;;;;;;5064948;28;20111;-76
2024/01/10 09:42:44;;;;;;;1.90;1.80;;;0.40;17.90;;;;;;5051053;28;20044;-76
2024/01/10 09:45:12;;;;;;;1.80;1.70;;;0.60;17.50;;;;;;5065269;28;20558;-76
2024/01/10 09:47:39;;;;;;;1.70;1.60;;;0.60;9.00;;;;;;5066847;28;20785;-78
2024/01/10 09:50:07;;;;;;;1.70;1.60;;;0.70;11.20;;;;;;5049526;28;20044;-77
2024/01/10 09:52:50;;;;;;;1.63;1.52;;;0.60;1.00;;;;;;5048312;28;20052;-77
2024/01/10 09:55:17;;;;;;;1.70;1.60;;;0.70;1.00;;;;;;5067254;28;20072;-78
2024/01/10 09:57:42;;;;;;;1.75;1.65;;;0.80;1.00;;;;;;5048562;28;20493;-78
2024/01/10 10:00:12;;;;;;;1.80;1.70;;;0.90;1.00;;;;;;5048395;28;20090;-80
2024/01/10 10:02:42;;;;;;;1.80;1.70;;;0.90;1.00;;;;;;5068247;28;20055;-79
2024/01/10 10:05:08;;;;;;;1.80;1.70;;;0.90;1.00;;;;;;5066420;28;20560;-78
2024/01/10 10:07:48;;;;;;;1.70;1.60;;;1.00;1.00;;;;;;5069002;28;20843;-79
2024/01/10 10:10:15;;;;;;;1.77;1.67;;;1.30;1.00;;;;;;5068272;28;20052;-80
2024/01/10 10:12:54;;;;;;;1.70;1.60;;;1.20;1.00;;;;;;5069079;28;20044;-79
2024/01/10 10:15:22;;;;;;;1.70;1.60;;;1.50;1.00;;;;;;5048866;28;20501;-80
2024/01/10 10:17:50;;;;;;;1.70;1.60;;;1.30;1.00;;;;;;5048663;28;20075;-80
2024/01/10 10:20:25;;;;;;;1.80;1.70;;;1.40;1.00;;;;;;5047405;28;20037;-81
2024/01/10 10:23:04;;;;;;;1.80;1.70;;;1.50;1.00;;;;;;5030143;28;20047;-81
2024/01/10 10:25:34;;;;;;;1.75;1.65;;;1.40;1.00;;;;;;5049069;28;20080;-80
2024/01/10 10:28:01;;;;;;;1.80;1.70;;;1.30;1.00;;;;;;5065132;28;20083;-80
2024/01/10 10:30:33;;;;;;;1.73;1.63;;;1.40;1.00;;;;;;5052203;28;20541;-81
2024/01/10 10:32:59;;;;;;;1.75;1.65;;;1.60;1.00;;;;;;5066915;28;20505;-81
2024/01/10 10:35:24;;;;;;;1.70;1.60;;;1.70;1.00;;;;;;5067268;28;20048;-81
2024/01/10 10:37:52;;;;;;;1.70;1.60;;;1.60;1.00;;;;;;5053278;28;20393;-80
2024/01/10 10:40:19;;;;;;;1.70;1.60;;;1.80;1.00;;;;;;5033091;28;20044;-79
2024/01/10 10:42:56;;;;;;;1.60;1.50;;;1.80;1.00;;;;;;5052879;28;20051;-81
2024/01/10 10:45:25;;;;;;;1.60;1.50;;;1.80;1.00;;;;;;5066463;28;20102;-80
2024/01/10 10:47:57;;;;;;;1.60;1.50;;;1.80;1.00;;;;;;5053061;28;20032;-80
2024/01/10 10:50:24;;;;;;;1.63;1.52;;;1.90;1.00;;;;;;5070907;28;20060;-81
2024/01/10 10:52:51;;;;;;;1.60;1.50;;;2.00;1.00;;;;;;5052706;28;20051;-81
2024/01/10 10:55:18;;;;;;;1.50;1.40;;;2.10;1.00;;;;;;5054324;28;20040;-80
2024/01/10 10:57:48;;;;;;;1.50;1.40;;;2.00;1.00;;;;;;5074083;28;20048;-81
2024/01/10 11:00:16;;;;;;;1.42;1.40;;;2.20;1.00;;;;;;5068988;28;20583;-81
2024/01/10 11:02:45;;;;;;;1.30;1.30;;;2.20;1.00;;;;;;5051363;28;20049;-82
2024/01/10 11:05:12;;;;;;;1.20;1.20;;;2.30;1.00;;;;;;5070608;28;20122;-81
2024/01/10 11:07:44;;;;;;;1.20;1.20;;;2.30;1.00;;;;;;5070709;28;20055;-82
2024/01/10 11:10:24;;;;;;;1.20;1.20;;;2.20;1.00;;;;;;5051343;28;20115;-82
2024/01/10 11:13:22;;;;;;;1.20;1.20;;;2.00;1.00;;;;;;5049057;28;20040;-82
2024/01/10 11:16:07;;;;;;;1.23;1.23;;;2.30;1.00;;;;;;5053021;28;20048;-82
2024/01/10 11:19:11;;;;;;;1.20;1.20;;;2.30;1.00;;;;;;5071232;28;20579;-82
2024/01/10 11:21:52;;;;;;;;;;;2.40;1.00;;;;;;4973198;28;20427;-83
2024/01/10 11:24:18;;;;;;;1.30;1.30;;;2.50;1.00;;;;;;4970687;28;20004;-82
2024/01/10 11:26:45;;;;;;;1.27;1.27;;;2.60;1.00;;;;;;5016115;28;20420;-83
2024/01/10 11:29:12;;;;;;;1.25;1.25;;;2.50;1.00;;;;;;5069075;28;20501;-83
2024/01/10 11:31:39;;;;;;;1.20;1.20;;;2.60;1.00;;;;;;5036238;28;20048;-84
2024/01/10 11:34:05;;;;;;;1.20;1.20;;;2.60;1.00;;;;;;5054024;28;20036;-84
2024/01/10 11:36:31;;;;;;;1.10;1.10;;;2.80;1.00;;;;;;5053253;28;20398;-84
2024/01/10 11:38:59;;;;;;;1.10;1.10;;;2.80;1.00;;;;;;5050754;28;20051;-84
2024/01/10 11:41:27;;;;;;;1.10;1.10;;;2.80;1.00;;;;;;5050847;28;20124;-84
2024/01/10 11:44:18;;;;;;;1.00;1.00;;;2.80;1.00;;;;;;5050001;28;20032;-84
2024/01/10 11:46:49;;;;;;;1.02;1.02;;;2.80;1.00;;;;;;5030166;28;20127;-85
2024/01/10 11:49:20;;;;;;;1.05;1.05;;;2.90;1.00;;;;;;5048836;28;20456;-87
2024/01/10 11:51:54;;;;;;;1.02;1.02;;;3.10;1.00;;;;;;5033016;28;20532;-87
2024/01/10 11:54:39;;;;;;;1.00;1.00;;;3.30;1.00;;;;;;5051664;28;20049;-85
2024/01/10 11:57:18;;;;;;;1.00;1.00;;;3.20;1.00;;;;;;5049124;28;20076;-85
2024/01/10 11:59:45;;;;;;;1.00;1.00;;;3.20;1.00;;;;;;5049265;28;20044;-86
2024/01/10 12:02:14;;;;;;;1.10;1.10;;;3.30;1.00;;;;;;5033189;28;20045;-88
2024/01/10 12:04:41;;;;;;;1.10;1.10;;;3.20;1.00;;;;;;5051291;28;20072;-85
2024/01/10 12:07:07;;;;;;;1.20;1.20;;;3.20;1.00;;;;;;5049481;28;20076;-84
2024/01/10 12:09:35;;;;;;;1.15;1.15;;;3.30;1.00;;;;;;5067380;28;20182;-85
2024/01/10 12:12:02;;;;;;;1.20;1.20;;;3.30;1.00;;;;;;5049254;28;20501;-84
2024/01/10 12:14:28;;;;;;;1.20;1.20;;;3.30;1.00;;;;;;5051534;28;20541;-85
2024/01/10 12:16:54;;;;;;;1.33;1.33;;;3.60;1.00;;;;;;5051443;28;20126;-85
2024/01/10 12:19:20;;;;;;;1.55;1.45;;;3.60;1.00;;;;;;5053263;28;20578;-86
2024/01/10 12:21:47;;;;;;;1.60;1.50;;;3.70;1.00;;;;;;5051184;28;20319;-85
2024/01/10 12:24:13;;;;;;;1.70;1.60;;;3.80;1.00;;;;;;5049693;28;20059;-85
2024/01/10 12:26:49;;;;;;;4.25;3.95;;;3.80;1.00;;;;;;5053108;28;20048;-85
2024/01/10 12:29:20;;;;;;;1.88;1.77;;;3.80;1.00;;;;;;5032278;28;20406;-85
2024/01/10 12:31:46;;;;;;;1.90;1.80;;;3.80;1.00;;;;;;5051716;28;20086;-84
2024/01/10 12:34:12;;;;;;;1.98;1.88;;;3.90;1.00;;;;;;5054903;28;20040;-86
2024/01/10 12:36:41;;;;;;;1.88;1.77;;;3.90;1.00;;;;;;5032494;28;20066;-84
2024/01/10 12:39:07;;;;;;;1.90;1.80;;;3.80;1.00;;;;;;5062620;28;20055;-85
2024/01/10 12:41:34;;;;;;;1.88;1.77;;;3.80;1.00;;;;;;5052128;28;20040;-84
2024/01/10 12:44:03;;;;;;;4.70;4.40;;;3.90;1.00;;;;;;5052967;28;20059;-86
2024/01/10 12:46:30;;;;;;;1.90;1.80;;;4.10;1.00;;;;;;5054096;28;20421;-86
2024/01/10 12:49:03;;;;;;;1.83;1.73;;;4.00;1.00;;;;;;5054748;28;20402;-85
2024/01/10 12:51:30;;;;;;;1.93;1.83;;;4.00;1.00;;;;;;5050120;28;20040;-86
2024/01/10 12:53:58;;;;;;;1.90;1.80;;;4.00;1.00;;;;;;5052333;28;20347;-86
2024/01/10 12:56:24;;;;;;;1.90;1.80;;;4.00;1.00;;;;;;5051649;28;20500;-86